createdAt,value
2022-09-28T00:01:07.914Z,11.13
2022-09-28T00:03:35.262Z,9.00
2022-09-28T00:06:11.305Z,7.20
2022-09-28T00:08:38.467Z,6.85
2022-09-28T00:11:12.323Z,5.40
2022-09-28T00:13:40.418Z,6.05
2022-09-28T00:16:11.881Z,6.07
2022-09-28T00:18:38.740Z,4.60
2022-09-28T00:21:10.220Z,4.20
2022-09-28T00:24:00.540Z,4.07
2022-09-28T00:26:28.922Z,4.28
2022-09-28T00:29:00.627Z,3.90
2022-09-28T00:31:32.779Z,3.83
2022-09-28T00:34:01.952Z,4.10
2022-09-28T00:36:32.266Z,3.38
2022-09-28T00:38:59.995Z,3.20
2022-09-28T00:41:29.681Z,3.17
2022-09-28T00:44:24.925Z,3.78
2022-09-28T00:47:05.042Z,3.45
2022-09-28T00:49:50.890Z,3.42
2022-09-28T00:52:27.345Z,3.38
2022-09-28T00:54:56.300Z,3.53
2022-09-28T00:57:24.134Z,4.00
2022-09-28T00:59:52.400Z,3.85
2022-09-28T01:02:21.453Z,3.97
2022-09-28T01:04:50.250Z,4.13
2022-09-28T01:07:18.803Z,3.83
2022-09-28T01:09:46.521Z,3.95
2022-09-28T01:12:13.385Z,3.53
2022-09-28T01:14:41.349Z,3.50
2022-09-28T01:17:15.726Z,3.33
2022-09-28T01:23:06.893Z,3.78
2022-09-28T01:25:41.225Z,4.07
2022-09-28T01:28:12.248Z,4.57
2022-09-28T01:31:09.273Z,4.22
2022-09-28T01:33:48.515Z,4.18
2022-09-28T01:36:28.262Z,4.35
2022-09-28T01:39:11.022Z,3.83
2022-09-28T01:41:40.500Z,3.90
2022-09-28T01:44:13.003Z,4.57
2022-09-28T01:46:49.294Z,4.57
2022-09-28T01:49:31.354Z,4.25
2022-09-28T01:52:01.050Z,4.68
2022-09-28T01:54:37.227Z,4.75
2022-09-28T01:57:22.811Z,4.45
2022-09-28T01:59:57.661Z,5.43
2022-09-28T02:02:29.678Z,5.25
2022-09-28T02:05:06.671Z,5.20
2022-09-28T02:07:51.482Z,4.85
2022-09-28T02:12:54.044Z,4.53
2022-09-28T02:15:28.031Z,5.07
2022-09-28T02:17:55.096Z,4.30
2022-09-28T02:20:23.129Z,4.40
2022-09-28T02:22:53.458Z,4.88
2022-09-28T02:25:28.459Z,4.38
2022-09-28T02:28:04.396Z,4.00
2022-09-28T02:30:32.905Z,3.90
2022-09-28T02:33:23.305Z,4.53
2022-09-28T02:35:50.552Z,4.40
2022-09-28T02:38:17.721Z,3.83
2022-09-28T02:40:51.425Z,3.60
2022-09-28T02:43:32.182Z,3.42
2022-09-28T02:46:29.792Z,3.35
2022-09-28T02:49:21.838Z,3.85
2022-09-28T02:52:26.497Z,3.70
2022-09-28T02:55:07.926Z,3.25
2022-09-28T02:57:52.399Z,3.58
2022-09-28T03:00:22.936Z,3.35
2022-09-28T03:03:13.036Z,3.53
2022-09-28T03:05:45.861Z,4.53
2022-09-28T03:08:25.554Z,3.55
2022-09-28T03:10:58.351Z,3.90
2022-09-28T03:13:26.952Z,3.85
2022-09-28T03:16:13.415Z,3.65
2022-09-28T03:18:41.519Z,3.55
2022-09-28T03:21:11.484Z,3.70
2022-09-28T03:23:39.173Z,3.80
2022-09-28T03:26:07.816Z,3.25
2022-09-28T03:28:36.316Z,3.65
2022-09-28T03:31:03.704Z,3.75
2022-09-28T03:33:30.801Z,3.90
2022-09-28T03:35:57.694Z,4.32
2022-09-28T03:38:24.586Z,4.00
2022-09-28T03:40:58.075Z,5.00
2022-09-28T03:43:25.829Z,4.07
2022-09-28T03:45:56.930Z,4.85
2022-09-28T03:48:28.802Z,4.60
2022-09-28T03:51:03.659Z,4.95
2022-09-28T03:53:30.772Z,5.30
2022-09-28T03:56:03.502Z,5.45
2022-09-28T03:58:30.488Z,5.45
2022-09-28T04:01:03.245Z,6.32
2022-09-28T04:03:30.353Z,6.20
2022-09-28T04:05:57.480Z,5.40
2022-09-28T04:08:24.445Z,6.50
2022-09-28T04:10:51.506Z,6.55
2022-09-28T04:13:18.320Z,6.82
2022-09-28T04:15:52.889Z,6.68
2022-09-28T04:18:20.053Z,6.68
2022-09-28T04:20:48.221Z,7.22
2022-09-28T04:23:17.965Z,8.25
2022-09-28T04:25:47.907Z,7.50
2022-09-28T04:28:34.002Z,8.00
2022-09-28T04:31:00.799Z,7.20
2022-09-28T04:33:27.618Z,7.88
2022-09-28T04:35:54.452Z,7.53
2022-09-28T04:38:41.594Z,7.80
2022-09-28T04:41:08.123Z,7.80
2022-09-28T04:43:35.095Z,7.50
2022-09-28T04:46:02.752Z,8.30
2022-09-28T04:48:29.790Z,8.55
2022-09-28T04:50:58.414Z,8.23
2022-09-28T04:53:26.410Z,8.05
2022-09-28T04:56:06.858Z,7.55
2022-09-28T04:58:35.764Z,7.32
2022-09-28T05:01:06.046Z,7.03
2022-09-28T05:03:34.130Z,7.40
2022-09-28T05:06:01.653Z,8.00
2022-09-28T05:08:28.954Z,7.97
2022-09-28T05:11:06.566Z,8.15
2022-09-28T05:13:35.899Z,6.80
2022-09-28T05:16:05.386Z,7.53
2022-09-28T05:18:32.856Z,8.65
2022-09-28T05:20:59.885Z,8.05
2022-09-28T05:23:26.751Z,8.35
2022-09-28T05:25:53.591Z,8.85
2022-09-28T05:28:25.351Z,8.27
2022-09-28T05:30:52.364Z,7.72
2022-09-28T05:33:19.294Z,8.68
2022-09-28T05:35:49.739Z,7.10
2022-09-28T05:38:17.924Z,7.30
2022-09-28T05:40:44.997Z,7.25
2022-09-28T05:43:11.836Z,8.15
2022-09-28T05:45:38.757Z,7.20
2022-09-28T05:48:05.612Z,8.75
2022-09-28T05:50:32.727Z,9.48
2022-09-28T05:53:08.358Z,8.23
2022-09-28T05:55:37.801Z,6.85
2022-09-28T05:58:06.679Z,7.40
2022-09-28T06:00:34.815Z,7.70
2022-09-28T06:03:08.700Z,7.72
2022-09-28T06:05:36.393Z,7.45
2022-09-28T06:08:05.354Z,6.90
2022-09-28T06:10:33.508Z,8.13
2022-09-28T06:13:00.890Z,6.15
2022-09-28T06:15:30.543Z,7.28
2022-09-28T06:18:08.061Z,7.07
2022-09-28T06:20:37.508Z,7.45
2022-09-28T06:23:04.787Z,7.20
2022-09-28T06:25:32.425Z,6.78
2022-09-28T06:28:00.443Z,7.70
2022-09-28T06:30:28.854Z,6.55
2022-09-28T06:32:57.237Z,7.57
2022-09-28T06:35:26.417Z,7.50
2022-09-28T06:37:53.819Z,8.00
2022-09-28T06:40:21.439Z,7.30
2022-09-28T06:43:10.553Z,7.28
2022-09-28T06:45:38.547Z,7.50
2022-09-28T06:48:06.826Z,7.65
2022-09-28T06:50:37.527Z,8.00
2022-09-28T06:53:06.913Z,7.75
2022-09-28T06:55:33.756Z,7.95
2022-09-28T06:58:03.233Z,7.38
2022-09-28T07:00:34.086Z,7.28
2022-09-28T07:03:03.106Z,7.68
2022-09-28T07:05:30.649Z,7.57
2022-09-28T07:07:57.962Z,7.47
2022-09-28T07:10:27.833Z,8.55
2022-09-28T07:12:56.298Z,7.85
2022-09-28T07:15:24.377Z,7.60
2022-09-28T07:18:02.820Z,7.00
2022-09-28T07:20:31.007Z,7.78
2022-09-28T07:23:14.547Z,7.88
2022-09-28T07:25:45.677Z,8.57
2022-09-28T07:28:12.627Z,9.50
2022-09-28T07:30:39.728Z,8.65
2022-09-28T07:33:08.160Z,9.15
2022-09-28T07:35:34.988Z,8.00
2022-09-28T07:38:07.117Z,7.88
2022-09-28T07:40:54.078Z,7.70
2022-09-28T07:43:22.105Z,8.48
2022-09-28T07:45:54.444Z,7.80
2022-09-28T07:48:22.315Z,7.53
2022-09-28T07:50:51.885Z,7.78
2022-09-28T07:53:20.269Z,7.50
2022-09-28T07:56:05.812Z,8.35
2022-09-28T07:58:33.933Z,7.38
2022-09-28T08:01:08.590Z,9.10
2022-09-28T08:03:36.522Z,7.75
2022-09-28T08:06:07.168Z,8.30
2022-09-28T08:08:35.154Z,8.75
2022-09-28T08:11:02.510Z,7.78
2022-09-28T08:13:31.183Z,7.20
2022-09-28T08:16:02.124Z,7.10
2022-09-28T08:18:29.826Z,7.07
2022-09-28T08:21:15.342Z,6.28
2022-09-28T08:23:42.243Z,6.78
2022-09-28T08:26:13.315Z,7.10
2022-09-28T08:28:43.366Z,6.95
2022-09-28T08:31:10.298Z,7.68
2022-09-28T08:33:37.214Z,7.03
2022-09-28T08:36:05.217Z,6.53
2022-09-28T08:38:32.909Z,6.60
2022-09-28T08:41:32.349Z,6.53
2022-09-28T08:44:25.076Z,7.20
2022-09-28T08:47:00.124Z,6.38
2022-09-28T08:49:39.135Z,6.85
2022-09-28T08:52:28.195Z,5.80
2022-09-28T08:55:14.057Z,5.53
2022-09-28T08:58:05.149Z,5.65
2022-09-28T09:00:52.420Z,6.05
2022-09-28T09:03:35.883Z,5.45
2022-09-28T09:06:08.806Z,5.93
2022-09-28T09:08:50.196Z,5.72
2022-09-28T09:11:48.891Z,6.45
2022-09-28T09:14:28.021Z,5.70
2022-09-28T09:17:01.092Z,6.55
2022-09-28T09:19:36.259Z,6.20
2022-09-28T09:22:10.138Z,6.55
2022-09-28T09:25:03.244Z,6.82
2022-09-28T09:27:51.214Z,6.72
2022-09-28T09:30:22.044Z,6.35
2022-09-28T09:33:36.201Z,6.97
2022-09-28T09:36:25.001Z,7.38
2022-09-28T09:39:21.641Z,6.88
2022-09-28T09:42:15.500Z,7.43
2022-09-28T09:45:00.355Z,7.38
2022-09-28T09:47:39.380Z,8.48
2022-09-28T09:50:30.693Z,8.02
2022-09-28T09:53:04.922Z,8.95
2022-09-28T09:55:40.284Z,8.25
2022-09-28T09:58:24.252Z,8.68
2022-09-28T10:00:54.417Z,7.60
2022-09-28T10:03:28.205Z,7.63
2022-09-28T10:06:19.730Z,7.10
2022-09-28T10:08:52.347Z,7.40
2022-09-28T10:11:26.195Z,7.93
2022-09-28T10:13:53.017Z,7.93
2022-09-28T10:16:20.076Z,8.10
2022-09-28T10:18:49.647Z,7.00
2022-09-28T10:21:20.205Z,7.75
2022-09-28T10:23:57.289Z,7.55
2022-09-28T10:26:41.813Z,7.63
2022-09-28T10:29:20.012Z,6.78
2022-09-28T10:31:52.065Z,6.40
2022-09-28T10:34:26.358Z,6.35
2022-09-28T10:36:58.468Z,6.35
2022-09-28T10:39:31.811Z,6.13
2022-09-28T10:42:06.239Z,6.18
2022-09-28T10:47:08.891Z,6.45
2022-09-28T10:52:45.266Z,7.28
2022-09-28T10:55:33.054Z,6.30
2022-09-28T10:58:00.754Z,5.55
2022-09-28T11:00:42.005Z,6.10
2022-09-28T11:03:27.946Z,6.53
2022-09-28T11:05:57.939Z,6.60
2022-09-28T11:08:39.618Z,6.47
2022-09-28T11:11:14.717Z,7.00
2022-09-28T11:13:50.194Z,6.30
2022-09-28T11:16:26.697Z,5.70
2022-09-28T11:18:53.679Z,6.15
2022-09-28T11:21:42.965Z,5.60
2022-09-28T11:24:19.028Z,5.65
2022-09-28T11:26:49.652Z,4.85
2022-09-28T11:29:25.751Z,4.75
2022-09-28T11:31:53.128Z,4.70
2022-09-28T11:34:41.601Z,4.75
2022-09-28T11:37:34.362Z,4.57
2022-09-28T11:40:46.051Z,5.50
2022-09-28T11:43:37.255Z,4.25
2022-09-28T11:46:27.596Z,4.10
2022-09-28T11:49:07.154Z,3.67
2022-09-28T11:51:40.246Z,4.15
2022-09-28T11:54:44.372Z,4.63
2022-09-28T11:57:24.135Z,3.95
2022-09-28T11:59:57.822Z,4.75
2022-09-28T12:02:32.074Z,4.72
2022-09-28T12:07:50.274Z,4.75
2022-09-28T12:10:32.354Z,3.85
2022-09-28T12:13:11.966Z,3.50
2022-09-28T12:16:16.831Z,2.95
2022-09-28T12:18:55.339Z,3.30
2022-09-28T12:21:25.496Z,2.58
2022-09-28T12:23:57.048Z,2.40
2022-09-28T12:26:42.216Z,3.10
2022-09-28T12:29:17.254Z,2.78
2022-09-28T12:31:50.240Z,2.20
2022-09-28T12:34:17.063Z,2.17
2022-09-28T12:37:08.093Z,2.35
2022-09-28T12:39:57.896Z,1.90
2022-09-28T12:42:35.908Z,2.33
2022-09-28T12:45:18.892Z,2.20
2022-09-28T12:48:01.048Z,1.85
2022-09-28T12:50:38.779Z,1.73
2022-09-28T12:53:26.140Z,1.77
2022-09-28T12:56:04.668Z,1.95
2022-09-28T12:58:38.710Z,1.75
2022-09-28T13:01:15.166Z,1.90
2022-09-28T13:04:00.703Z,1.75
2022-09-28T13:06:54.962Z,1.73
2022-09-28T13:09:27.579Z,1.80
2022-09-28T13:12:19.242Z,1.73
2022-09-28T13:15:00.760Z,1.80
2022-09-28T13:17:49.763Z,1.63
2022-09-28T13:20:23.385Z,1.42
2022-09-28T13:23:03.153Z,1.95
2022-09-28T13:25:34.318Z,1.45
2022-09-28T13:28:04.216Z,1.58
2022-09-28T13:30:33.460Z,1.90
2022-09-28T13:33:03.389Z,1.77
2022-09-28T13:35:31.430Z,1.85
2022-09-28T13:38:21.009Z,1.70
2022-09-28T13:41:06.465Z,1.80
2022-09-28T13:43:35.413Z,1.77
2022-09-28T13:46:12.646Z,1.88
2022-09-28T13:49:08.873Z,1.60
2022-09-28T13:51:58.859Z,1.67
2022-09-28T13:54:50.390Z,1.42
2022-09-28T13:57:19.879Z,1.58
2022-09-28T14:00:21.944Z,1.30
2022-09-28T14:03:06.309Z,1.40
2022-09-28T14:05:52.664Z,1.83
2022-09-28T14:09:06.854Z,1.75
2022-09-28T14:11:36.919Z,1.77
2022-09-28T14:14:11.947Z,1.75
2022-09-28T14:16:40.483Z,1.83
2022-09-28T14:19:24.755Z,1.60
2022-09-28T14:22:22.142Z,1.60
2022-09-28T14:25:23.757Z,1.70
2022-09-28T14:28:19.469Z,1.50
2022-09-28T14:30:50.304Z,2.33
2022-09-28T14:33:30.614Z,1.88
2022-09-28T14:36:05.264Z,2.00
2022-09-28T14:39:08.652Z,1.80
2022-09-28T14:41:39.951Z,2.05
2022-09-28T14:44:08.667Z,1.80
2022-09-28T14:46:36.995Z,2.38
2022-09-28T14:49:26.792Z,2.00
2022-09-28T14:51:53.633Z,2.20
2022-09-28T14:54:22.975Z,1.92
2022-09-28T14:56:57.174Z,2.17
2022-09-28T14:59:36.114Z,2.28
2022-09-28T15:02:13.486Z,2.13
2022-09-28T15:05:07.597Z,2.38
2022-09-28T15:07:52.337Z,2.47
2022-09-28T15:12:57.254Z,2.40
2022-09-28T15:15:28.966Z,2.22
2022-09-28T15:18:18.848Z,2.60
2022-09-28T15:20:48.101Z,2.40
2022-09-28T15:23:35.487Z,2.15
2022-09-28T15:26:06.730Z,2.20
2022-09-28T15:28:35.832Z,1.95
2022-09-28T15:31:05.151Z,2.53
2022-09-28T15:33:53.690Z,2.45
2022-09-28T15:36:26.462Z,2.40
2022-09-28T15:39:01.325Z,2.30
2022-09-28T15:41:29.253Z,2.15
2022-09-28T15:44:12.540Z,2.70
2022-09-28T15:46:45.379Z,2.35
2022-09-28T15:49:31.580Z,2.22
2022-09-28T15:52:03.101Z,2.30
2022-09-28T15:54:38.953Z,2.25
2022-09-28T15:57:05.902Z,2.17
2022-09-28T15:59:34.794Z,2.97
2022-09-28T16:02:16.859Z,2.05
2022-09-28T16:04:56.024Z,2.15
2022-09-28T16:07:30.073Z,2.00
2022-09-28T16:10:05.455Z,2.90
2022-09-28T16:12:38.464Z,2.47
2022-09-28T16:15:23.703Z,2.40
2022-09-28T16:17:52.153Z,2.72
2022-09-28T16:20:40.529Z,2.45
2022-09-28T16:23:18.493Z,2.25
2022-09-28T16:25:58.852Z,2.40
2022-09-28T16:28:48.985Z,2.55
2022-09-28T16:31:27.411Z,2.78
2022-09-28T16:34:01.349Z,2.55
2022-09-28T16:36:38.615Z,2.60
2022-09-28T16:39:05.514Z,2.72
2022-09-28T16:41:32.380Z,2.97
2022-09-28T16:44:02.266Z,3.10
2022-09-28T16:46:37.255Z,4.03
2022-09-28T16:49:06.228Z,3.33
2022-09-28T16:51:33.789Z,3.30
2022-09-28T16:54:32.774Z,3.28
2022-09-28T16:57:00.517Z,3.70
2022-09-28T16:59:28.419Z,3.88
2022-09-28T17:01:56.841Z,3.40
2022-09-28T17:04:25.171Z,3.65
2022-09-28T17:06:54.401Z,3.33
2022-09-28T17:09:24.315Z,3.80
2022-09-28T17:11:56.203Z,3.60
2022-09-28T17:14:24.017Z,4.28
2022-09-28T17:17:13.811Z,4.10
2022-09-28T17:19:41.390Z,4.05
2022-09-28T17:22:11.457Z,3.83
2022-09-28T17:24:38.350Z,4.00
2022-09-28T17:27:06.983Z,3.92
2022-09-28T17:29:33.827Z,4.43
2022-09-28T17:32:00.699Z,4.50
2022-09-28T17:34:27.622Z,3.92
2022-09-28T17:36:54.810Z,4.43
2022-09-28T17:39:21.781Z,4.75
2022-09-28T17:41:48.610Z,5.30
2022-09-28T17:44:16.411Z,4.25
2022-09-28T17:46:49.718Z,5.00
2022-09-28T17:49:17.244Z,4.78
2022-09-28T17:51:44.131Z,5.25
2022-09-28T17:54:13.038Z,4.97
2022-09-28T17:56:39.907Z,4.85
2022-09-28T17:59:10.714Z,5.38
2022-09-28T18:01:40.218Z,5.88
2022-09-28T18:04:09.009Z,4.78
2022-09-28T18:06:37.387Z,5.82
2022-09-28T18:09:05.197Z,5.10
2022-09-28T18:11:33.328Z,6.00
2022-09-28T18:14:00.260Z,5.60
2022-09-28T18:16:28.989Z,6.60
2022-09-28T18:18:56.453Z,6.18
2022-09-28T18:21:23.413Z,6.38
2022-09-28T18:23:50.589Z,6.22
2022-09-28T18:26:19.667Z,5.63
2022-09-28T18:28:47.162Z,5.78
2022-09-28T18:31:15.908Z,6.25
2022-09-28T18:33:43.443Z,5.90
2022-09-28T18:36:10.663Z,6.28
2022-09-28T18:38:38.435Z,6.72
2022-09-28T18:41:17.181Z,6.22
2022-09-28T18:43:49.305Z,6.60
2022-09-28T18:46:20.364Z,6.30
2022-09-28T18:48:47.892Z,5.93
2022-09-28T18:51:15.140Z,6.60
2022-09-28T18:53:42.302Z,6.78
2022-09-28T18:56:11.811Z,7.55
2022-09-28T18:58:42.121Z,8.30
2022-09-28T19:04:04.580Z,9.32
2022-09-28T19:06:32.792Z,15.70
2022-09-28T19:09:00.000Z,11.77
2022-09-28T19:11:27.365Z,11.98
2022-09-28T19:13:55.509Z,10.88
2022-09-28T19:16:25.297Z,10.70
2022-09-28T19:18:53.791Z,10.13
2022-09-28T19:21:21.062Z,9.13
2022-09-28T19:23:49.880Z,10.65
2022-09-28T19:26:25.459Z,10.02
2022-09-28T19:28:52.615Z,10.18
2022-09-28T19:31:20.142Z,10.43
2022-09-28T19:33:47.306Z,12.68
2022-09-28T19:36:17.857Z,13.73
2022-09-28T19:38:45.572Z,11.57
2022-09-28T19:41:39.422Z,12.02
2022-09-28T19:44:29.776Z,12.27
2022-09-28T19:47:06.885Z,11.88
2022-09-28T19:49:38.526Z,10.85
2022-09-28T19:52:17.671Z,10.30
2022-09-28T19:54:57.054Z,11.50
2022-09-28T19:57:29.943Z,9.40
2022-09-28T20:00:02.149Z,10.68
2022-09-28T20:02:29.633Z,11.07
2022-09-28T20:04:56.501Z,11.30
2022-09-28T20:07:23.380Z,10.35
2022-09-28T20:09:50.194Z,9.52
2022-09-28T20:12:17.228Z,10.05
2022-09-28T20:14:44.020Z,11.15
2022-09-28T20:17:10.874Z,11.07
2022-09-28T20:19:38.196Z,10.60
2022-09-28T20:22:05.204Z,11.38
2022-09-28T20:24:32.291Z,10.85
2022-09-28T20:26:59.448Z,10.70
2022-09-28T20:29:26.808Z,11.85
2022-09-28T20:31:53.680Z,11.38
2022-09-28T20:34:20.605Z,10.38
2022-09-28T20:36:48.345Z,10.85
2022-09-28T20:39:15.326Z,11.00
2022-09-28T20:41:42.522Z,11.57
2022-09-28T20:44:09.994Z,11.10
2022-09-28T20:46:38.193Z,11.52
2022-09-28T20:49:05.601Z,12.23
2022-09-28T20:51:32.809Z,12.50
2022-09-28T20:54:00.212Z,11.95
2022-09-28T20:56:38.852Z,13.07
2022-09-28T20:59:11.732Z,12.52
2022-09-28T21:01:39.225Z,12.20
2022-09-28T21:04:07.865Z,12.45
2022-09-28T21:06:39.886Z,12.90
2022-09-28T21:09:08.446Z,14.63
2022-09-28T21:11:36.059Z,13.05
2022-09-28T21:14:05.843Z,12.93
2022-09-28T21:16:34.512Z,13.77
2022-09-28T21:19:01.553Z,14.80
2022-09-28T21:21:28.419Z,15.30
2022-09-28T21:23:56.906Z,14.98
2022-09-28T21:26:26.072Z,15.07
2022-09-28T21:28:58.200Z,14.23
2022-09-28T21:31:29.062Z,15.45
2022-09-28T21:33:57.127Z,16.98
2022-09-28T21:36:24.556Z,16.27
2022-09-28T21:38:51.512Z,14.15
2022-09-28T21:41:18.345Z,15.75
2022-09-28T21:43:45.959Z,16.33
2022-09-28T21:46:12.989Z,15.68
2022-09-28T21:48:39.983Z,15.93
2022-09-28T21:51:10.260Z,15.30
2022-09-28T21:53:38.314Z,14.40
2022-09-28T21:56:07.568Z,14.93
2022-09-28T21:58:35.657Z,16.40
2022-09-28T22:01:03.922Z,14.77
2022-09-28T22:03:32.192Z,14.32
2022-09-28T22:05:59.420Z,15.68
2022-09-28T22:08:26.537Z,14.07
2022-09-28T22:11:01.563Z,14.75
2022-09-28T22:13:29.487Z,14.52
2022-09-28T22:15:59.959Z,16.42
2022-09-28T22:18:28.310Z,15.50
2022-09-28T22:20:59.552Z,16.40
2022-09-28T22:23:27.778Z,14.93
2022-09-28T22:26:09.775Z,16.50
2022-09-28T22:28:37.269Z,16.65
2022-09-28T22:31:04.421Z,17.27
2022-09-28T22:33:31.302Z,17.70
2022-09-28T22:35:58.100Z,18.00
2022-09-28T22:38:25.259Z,16.92
2022-09-28T22:40:55.056Z,20.05
2022-09-28T22:43:26.646Z,17.13
2022-09-28T22:46:04.093Z,18.65
2022-09-28T22:48:31.522Z,18.58
2022-09-28T22:50:58.915Z,17.30
2022-09-28T22:53:25.761Z,17.05
2022-09-28T22:55:52.648Z,19.95
2022-09-28T22:58:19.527Z,18.38
2022-09-28T23:00:46.411Z,18.60
2022-09-28T23:03:13.327Z,19.60
2022-09-28T23:05:40.225Z,19.85
2022-09-28T23:08:07.212Z,17.90
2022-09-28T23:10:34.146Z,19.30
2022-09-28T23:13:00.956Z,15.98
2022-09-28T23:15:29.050Z,15.27
2022-09-28T23:17:55.991Z,15.07
2022-09-28T23:20:23.756Z,15.15
2022-09-28T23:22:50.949Z,14.32
2022-09-28T23:25:18.868Z,15.68
2022-09-28T23:27:47.108Z,15.27
2022-09-28T23:30:15.922Z,14.75
2022-09-28T23:32:43.127Z,14.88
2022-09-28T23:35:10.872Z,14.40
2022-09-28T23:37:38.053Z,13.57
2022-09-28T23:40:07.984Z,12.68
2022-09-28T23:42:35.563Z,12.90
2022-09-28T23:45:02.478Z,12.70
2022-09-28T23:47:29.308Z,11.98
2022-09-28T23:49:56.112Z,11.35
2022-09-28T23:52:22.974Z,10.93
2022-09-28T23:54:49.796Z,10.15
2022-09-28T23:57:16.725Z,12.25
2022-09-28T23:59:43.518Z,11.88
